createdAt,value
2018-05-13T00:02:33.795Z,14.5
2018-05-13T00:07:33.842Z,14.4
2018-05-13T00:12:33.884Z,14.3
2018-05-13T00:17:35.326Z,14.2
2018-05-13T00:22:33.889Z,14.3
2018-05-13T00:27:33.908Z,14.2
2018-05-13T00:32:37.183Z,14.2
2018-05-13T00:37:36.881Z,14.2
2018-05-13T00:42:49.272Z,14.1
2018-05-13T00:47:48.992Z,13.9
2018-05-13T00:52:48.997Z,14
2018-05-13T00:57:49.162Z,14
2018-05-13T01:02:49.245Z,13.9
2018-05-13T01:07:49.009Z,13.6
2018-05-13T01:12:48.986Z,13.7
2018-05-13T01:17:51.552Z,13.7
2018-05-13T01:22:51.293Z,13.6
2018-05-13T01:28:03.355Z,13.6
2018-05-13T01:33:03.072Z,13.5
2018-05-13T01:38:03.073Z,13.5
2018-05-13T01:43:03.281Z,13.5
2018-05-13T01:48:03.103Z,13.4
2018-05-13T01:53:03.096Z,13.4
2018-05-13T01:58:03.088Z,13.2
2018-05-13T02:03:03.096Z,13
2018-05-13T02:08:03.089Z,13.2
2018-05-13T02:13:14.538Z,13.2
2018-05-13T02:18:14.308Z,13.1
2018-05-13T02:23:14.223Z,13
2018-05-13T02:28:14.273Z,13.1
2018-05-13T02:33:14.264Z,13
2018-05-13T02:38:14.276Z,12.5
2018-05-13T02:43:14.430Z,12.7
2018-05-13T02:48:14.936Z,12.6
2018-05-13T02:53:14.655Z,12.7
2018-05-13T02:58:27.263Z,12.5
2018-05-13T03:03:26.964Z,12.4
2018-05-13T03:08:26.975Z,12.3
2018-05-13T03:13:26.966Z,12.4
2018-05-13T03:18:26.976Z,12.5
2018-05-13T03:23:26.996Z,12.5
2018-05-13T03:28:26.984Z,12.4
2018-05-13T03:33:27.401Z,12.5
2018-05-13T03:38:27.124Z,12.3
2018-05-13T03:43:39.977Z,12.2
2018-05-13T03:48:39.682Z,12.3
2018-05-13T03:53:39.693Z,12.3
2018-05-13T03:58:39.822Z,12.4
2018-05-13T04:03:39.697Z,12.4
2018-05-13T04:08:39.707Z,12.4
2018-05-13T04:13:39.703Z,12.5
2018-05-13T04:18:40.830Z,12.8
2018-05-13T04:23:40.552Z,12.9
2018-05-13T04:28:52.741Z,13.2
2018-05-13T04:33:52.464Z,13.5
2018-05-13T04:38:52.471Z,13.7
2018-05-13T04:43:52.633Z,14
2018-05-13T04:48:52.456Z,14.3
2018-05-13T04:53:52.471Z,14.3
2018-05-13T04:58:52.481Z,14.6
2018-05-13T05:03:52.733Z,14.8
2018-05-13T05:08:52.776Z,15
2018-05-13T05:14:05.503Z,15.3
2018-05-13T05:19:05.243Z,15.6
2018-05-13T05:24:05.393Z,16
2018-05-13T05:29:05.433Z,16.1
2018-05-13T05:34:05.244Z,16.5
2018-05-13T05:39:05.387Z,16.8
2018-05-13T05:44:05.247Z,17.1
2018-05-13T05:49:05.504Z,17.5
2018-05-13T05:54:05.710Z,17.5
2018-05-13T05:59:17.830Z,17.8
2018-05-13T06:04:17.564Z,18.2
2018-05-13T06:09:17.540Z,18.6
2018-05-13T06:14:17.540Z,18.9
2018-05-13T06:19:17.538Z,18.9
2018-05-13T06:24:17.552Z,19.3
2018-05-13T06:29:17.541Z,19.6
2018-05-13T06:34:17.593Z,20
2018-05-13T06:39:17.578Z,20.2
2018-05-13T06:44:29.721Z,20.4
2018-05-13T06:49:29.644Z,20.4
2018-05-13T06:54:29.467Z,20.4
2018-05-13T06:59:29.590Z,20.6
2018-05-13T07:04:29.461Z,20.9
2018-05-13T07:09:29.964Z,20.5
2018-05-13T07:14:29.977Z,20.8
2018-05-13T07:19:32.059Z,21.2
2018-05-13T07:24:31.821Z,21.5
2018-05-13T07:29:44.729Z,21.2
2018-05-13T07:34:44.371Z,21.7
2018-05-13T07:39:44.409Z,21.8
2018-05-13T07:44:44.407Z,21.8
2018-05-13T07:49:44.416Z,22.1
2018-05-13T07:54:44.434Z,22.4
2018-05-13T07:59:44.554Z,22.5
2018-05-13T08:04:47.473Z,22.5
2018-05-13T08:09:47.189Z,22.7
2018-05-13T08:14:59.623Z,22.9
2018-05-13T08:19:59.584Z,23.4
2018-05-13T08:24:59.350Z,23.3
2018-05-13T08:29:59.348Z,23.4
2018-05-13T08:34:59.870Z,23.9
2018-05-13T08:39:59.344Z,23.4
2018-05-13T08:44:59.357Z,23.9
2018-05-13T08:50:02.337Z,23.8
2018-05-13T08:55:02.208Z,23.8
2018-05-13T09:00:20.374Z,24
2018-05-13T09:05:20.103Z,24.1
2018-05-13T09:10:20.101Z,24.8
2018-05-13T09:15:20.115Z,24.8
2018-05-13T09:20:20.130Z,25
2018-05-13T09:25:20.393Z,24.6
2018-05-13T09:30:20.283Z,24.9
2018-05-13T09:35:21.077Z,24.7
2018-05-13T09:40:20.807Z,25.1
2018-05-13T09:45:33.987Z,25.3
2018-05-13T09:50:34.052Z,25.3
2018-05-13T09:55:33.775Z,25.3
2018-05-13T10:00:33.702Z,25.4
2018-05-13T10:05:33.746Z,25.7
2018-05-13T10:10:33.643Z,25.9
2018-05-13T10:15:33.807Z,25.8
2018-05-13T10:20:36.020Z,26.2
2018-05-13T10:25:36.094Z,26.4
2018-05-13T10:30:46.303Z,26.1
2018-05-13T10:35:46.253Z,26.5
2018-05-13T10:40:46.040Z,26.5
2018-05-13T10:45:46.057Z,26.5
2018-05-13T10:50:46.243Z,26.7
2018-05-13T10:55:46.069Z,26.5
2018-05-13T11:00:46.159Z,26.3
2018-05-13T11:05:46.067Z,26.9
2018-05-13T11:10:46.283Z,27.1
2018-05-13T11:15:46.071Z,27.2
2018-05-13T11:20:46.316Z,27.3
2018-05-13T11:25:46.079Z,27.6
2018-05-13T11:30:46.524Z,27.7
2018-05-13T11:35:46.275Z,27.2
2018-05-13T11:41:01.126Z,26.8
2018-05-13T11:46:00.848Z,26.2
2018-05-13T11:51:00.846Z,25.7
2018-05-13T11:56:00.848Z,25.5
2018-05-13T12:01:01.060Z,25
2018-05-13T12:06:00.859Z,25
2018-05-13T12:11:00.872Z,24.9
2018-05-13T12:16:01.695Z,24.9
2018-05-13T12:21:01.750Z,24.5
2018-05-13T12:26:13.838Z,24.1
2018-05-13T12:31:13.761Z,23.9
2018-05-13T12:36:13.572Z,23.6
2018-05-13T12:41:13.743Z,23.3
2018-05-13T12:46:13.762Z,23
2018-05-13T12:51:13.590Z,22.8
2018-05-13T12:56:13.527Z,22.8
2018-05-13T13:01:13.744Z,22.8
2018-05-13T13:06:13.782Z,22.8
2018-05-13T13:11:13.531Z,22.7
2018-05-13T13:16:13.589Z,22.7
2018-05-13T13:21:13.581Z,22.9
2018-05-13T13:26:13.591Z,23.3
2018-05-13T13:31:13.742Z,23.3
2018-05-13T13:36:30.981Z,23.1
2018-05-13T13:41:30.929Z,23.2
2018-05-13T13:46:33.519Z,23.2
2018-05-13T13:51:34.536Z,23
2018-05-13T13:56:45.886Z,23.2
2018-05-13T14:01:45.842Z,23.5
2018-05-13T14:06:45.629Z,23.6
2018-05-13T14:11:45.639Z,24
2018-05-13T14:16:45.622Z,24.3
2018-05-13T14:21:45.851Z,24.4
2018-05-13T14:26:45.628Z,24.7
2018-05-13T14:31:46.427Z,24.7
2018-05-13T14:36:46.346Z,24.9
2018-05-13T14:41:58.387Z,24.9
2018-05-13T14:46:58.090Z,24.8
2018-05-13T14:51:58.106Z,24.9
2018-05-13T14:56:58.048Z,25
2018-05-13T15:01:58.292Z,25.1
2018-05-13T15:06:58.111Z,25.4
2018-05-13T15:11:58.228Z,25.4
2018-05-13T15:16:58.108Z,25.6
2018-05-13T15:21:58.340Z,25.6
2018-05-13T15:26:58.125Z,25.5
2018-05-13T15:31:58.252Z,25.5
2018-05-13T15:36:58.132Z,25.6
2018-05-13T15:42:01.958Z,25.6
2018-05-13T15:47:01.868Z,25.4
2018-05-13T15:52:12.792Z,25.1
2018-05-13T15:57:12.528Z,25.1
2018-05-13T16:02:12.697Z,25
2018-05-13T16:07:12.617Z,24.8
2018-05-13T16:12:12.540Z,24.4
2018-05-13T16:17:12.531Z,24.2
2018-05-13T16:22:12.507Z,24
2018-05-13T16:27:13.175Z,23.7
2018-05-13T16:32:12.910Z,23.6
2018-05-13T16:37:25.103Z,23.4
2018-05-13T16:42:24.981Z,23.3
2018-05-13T16:47:25.136Z,23.1
2018-05-13T16:52:24.871Z,23.1
2018-05-13T16:57:24.961Z,23
2018-05-13T17:02:24.942Z,22.9
2018-05-13T17:07:24.835Z,22.8
2018-05-13T17:12:25.075Z,22.8
2018-05-13T17:17:25.146Z,22.7
2018-05-13T17:22:38.999Z,22.6
2018-05-13T17:27:38.732Z,22.6
2018-05-13T17:32:38.761Z,22.4
2018-05-13T17:37:38.784Z,22.4
2018-05-13T17:42:38.720Z,22.3
2018-05-13T17:47:38.793Z,22.3
2018-05-13T17:52:38.736Z,22.2
2018-05-13T17:57:38.768Z,22.1
2018-05-13T18:02:38.985Z,22
2018-05-13T18:07:38.806Z,22
2018-05-13T18:12:38.774Z,21.9
2018-05-13T18:17:38.765Z,21.8
2018-05-13T18:22:40.031Z,21.7
2018-05-13T18:27:39.883Z,21.6
2018-05-13T18:32:52.992Z,21.5
2018-05-13T18:37:52.730Z,21.5
2018-05-13T18:42:52.741Z,21.4
2018-05-13T18:47:52.741Z,21.3
2018-05-13T18:52:52.742Z,21.1
2018-05-13T18:57:52.766Z,21.1
2018-05-13T19:02:52.774Z,21
2018-05-13T19:07:53.486Z,20.9
2018-05-13T19:12:52.969Z,20.8
2018-05-13T19:18:05.019Z,20.7
2018-05-13T19:23:04.718Z,20.6
2018-05-13T19:28:04.782Z,20.5
2018-05-13T19:33:04.747Z,20.5
2018-05-13T19:38:04.813Z,20.3
2018-05-13T19:43:04.737Z,20.2
2018-05-13T19:48:04.735Z,20.2
2018-05-13T19:53:06.516Z,20.1
2018-05-13T19:58:06.205Z,20
2018-05-13T20:03:21.939Z,19.9
2018-05-13T20:08:21.421Z,19.9
2018-05-13T20:13:21.392Z,19.8
2018-05-13T20:18:21.555Z,19.8
2018-05-13T20:23:21.423Z,19.7
2018-05-13T20:28:21.405Z,19.7
2018-05-13T20:33:21.398Z,19.7
2018-05-13T20:38:24.510Z,19.6
2018-05-13T20:43:24.385Z,19.6
2018-05-13T20:48:34.668Z,19.5
2018-05-13T20:53:34.382Z,19.5
2018-05-13T20:58:34.372Z,19.4
2018-05-13T21:03:34.581Z,19.4
2018-05-13T21:08:34.409Z,19.3
2018-05-13T21:13:34.414Z,19.3
2018-05-13T21:18:34.647Z,19.2
2018-05-13T21:23:38.285Z,19.2
2018-05-13T21:28:38.210Z,19.1
2018-05-13T21:33:51.582Z,19
2018-05-13T21:38:51.392Z,19
2018-05-13T21:43:51.249Z,18.9
2018-05-13T21:48:51.475Z,18.9
2018-05-13T21:53:51.314Z,18.8
2018-05-13T21:58:51.526Z,18.7
2018-05-13T22:03:51.316Z,18.7
2018-05-13T22:08:51.536Z,18.7
2018-05-13T22:13:51.740Z,18.6
2018-05-13T22:19:03.466Z,18.6
2018-05-13T22:24:03.383Z,18.6
2018-05-13T22:29:03.407Z,18.6
2018-05-13T22:34:03.301Z,18.6
2018-05-13T22:39:03.392Z,18.6
2018-05-13T22:44:03.191Z,18.6
2018-05-13T22:49:03.360Z,18.6
2018-05-13T22:54:03.889Z,18.6
2018-05-13T22:59:03.547Z,18.6
2018-05-13T23:04:16.952Z,18.6
2018-05-13T23:09:16.751Z,18.6
2018-05-13T23:14:16.476Z,18.6
2018-05-13T23:19:16.674Z,18.6
2018-05-13T23:24:16.479Z,18.5
2018-05-13T23:29:16.691Z,18.6
2018-05-13T23:34:16.661Z,18.5
2018-05-13T23:39:17.598Z,18.6
2018-05-13T23:44:17.549Z,18.5
2018-05-13T23:49:28.651Z,18.6
2018-05-13T23:54:28.531Z,18.5
2018-05-13T23:59:28.598Z,18.6
